Time;durP1;ratioP1;P1;durP2;ratioP2;P2;SDS_P1;SDS_P2;PMS_P1;PMS_P2;Temp;Humidity;BMP_temperature;BMP_pressure;BME280_temperature;BME280_humidity;BME280_pressure;Samples;Min_cycle;Max_cycle;Signal;HPM_P1;HPM_P2
2023/06/25 00:01:17;;;;;;;13.02;9.75;;;;;;;19.45;80.31;101909.06;4988463;28;20034;-68
2023/06/25 00:03:43;;;;;;;15.30;9.38;;;;;;;19.40;80.92;101900.34;4996064;28;20112;-68
2023/06/25 00:06:08;;;;;;;14.73;9.15;;;;;;;19.36;79.98;101896.09;5004198;28;20080;-69
2023/06/25 00:08:33;;;;;;;16.60;8.50;;;;;;;19.34;80.12;101899.00;4989113;28;20057;-68
2023/06/25 00:10:59;;;;;;;15.40;8.63;;;;;;;19.32;80.47;101891.88;4989688;28;20085;-70
2023/06/25 00:13:24;;;;;;;14.23;8.90;;;;;;;19.31;80.25;101884.63;4988779;28;20100;-68
2023/06/25 00:15:49;;;;;;;12.52;8.52;;;;;;;19.21;81.95;101887.38;4988165;28;20033;-68
2023/06/25 00:18:15;;;;;;;15.25;9.27;;;;;;;19.17;82.16;101888.66;4988135;28;20062;-69
2023/06/25 00:20:40;;;;;;;13.75;8.70;;;;;;;19.14;81.35;101886.19;4988395;28;20038;-69
2023/06/25 00:23:06;;;;;;;16.00;9.32;;;;;;;19.12;80.50;101885.47;5002319;28;20079;-69
2023/06/25 00:25:31;;;;;;;13.18;8.65;;;;;;;19.08;81.24;101875.72;5004189;28;20041;-69
2023/06/25 00:27:57;;;;;;;12.38;8.50;;;;;;;19.09;80.51;101881.09;5002437;28;20061;-70
2023/06/25 00:30:24;;;;;;;14.15;9.43;;;;;;;19.05;81.43;101882.38;5002602;28;20577;-69
2023/06/25 00:32:54;;;;;;;13.55;8.73;;;;;;;19.01;81.55;101871.75;5002847;28;20124;-69
2023/06/25 00:35:24;;;;;;;14.73;9.35;;;;;;;18.97;82.32;101879.44;5004675;28;20092;-69
2023/06/25 00:37:50;;;;;;;16.70;11.00;;;;;;;18.94;82.44;101879.75;5001052;28;20600;-69
2023/06/25 00:40:17;;;;;;;15.98;9.55;;;;;;;18.90;82.38;101874.66;5002008;28;20101;-69
2023/06/25 00:42:43;;;;;;;14.60;9.85;;;;;;;18.83;82.10;101869.66;5002832;28;20041;-69
2023/06/25 00:45:13;;;;;;;12.85;9.65;;;;;;;18.78;82.91;101877.50;5003144;28;20096;-69
2023/06/25 00:47:41;;;;;;;12.40;8.57;;;;;;;18.74;82.07;101876.03;4993470;28;20026;-69
2023/06/25 00:50:12;;;;;;;16.63;9.20;;;;;;;18.71;81.63;101865.28;4984382;28;20473;-69
2023/06/25 00:52:39;;;;;;;13.68;7.90;;;;;;;18.72;80.84;101872.53;5006117;28;20045;-70
2023/06/25 00:55:08;;;;;;;16.05;10.40;;;;;;;18.65;83.16;101862.16;4995252;28;20066;-69
2023/06/25 00:57:35;;;;;;;18.30;10.10;;;;;;;18.63;82.33;101865.06;5002497;28;20030;-69
2023/06/25 01:00:00;;;;;;;16.65;10.55;;;;;;;18.63;82.11;101861.44;5002115;28;20038;-69
2023/06/25 01:02:46;;;;;;;14.02;9.75;;;;;;;18.63;81.22;101858.69;5004704;28;20135;-68
2023/06/25 01:05:24;;;;;;;16.30;10.38;;;;;;;18.55;82.68;101860.25;5006270;28;20378;-68
2023/06/25 01:07:52;;;;;;;14.15;9.10;;;;;;;18.49;82.86;101854.41;4988037;28;20038;-70
2023/06/25 01:10:19;;;;;;;14.20;8.70;;;;;;;18.44;82.83;101845.69;5017259;28;20552;-69
2023/06/25 01:12:44;;;;;;;13.95;9.52;;;;;;;18.40;82.52;101845.09;5011162;28;20038;-70
2023/06/25 01:15:10;;;;;;;15.13;9.45;;;;;;;18.38;82.98;101849.88;4991491;28;20038;-70
2023/06/25 01:17:42;;;;;;;16.10;9.80;;;;;;;18.35;83.03;101847.41;5009074;28;20038;-70
2023/06/25 01:20:15;;;;;;;13.38;9.68;;;;;;;18.33;83.30;101847.53;5000277;28;20045;-69
2023/06/25 01:22:41;;;;;;;14.13;9.90;;;;;;;18.28;83.69;101844.31;4991443;28;20081;-69
2023/06/25 01:25:07;;;;;;;16.10;9.52;;;;;;;18.24;83.82;101841.97;5005403;28;20129;-69
2023/06/25 01:27:34;;;;;;;14.90;8.50;;;;;;;18.21;83.10;101842.25;5007404;28;20053;-69
2023/06/25 01:30:01;;;;;;;16.40;10.18;;;;;;;18.18;83.87;101843.38;5008713;28;20393;-70
2023/06/25 01:32:26;;;;;;;14.55;9.75;;;;;;;18.15;83.88;101834.53;5010621;28;20029;-68
2023/06/25 01:34:52;;;;;;;15.13;10.60;;;;;;;18.09;83.63;101830.41;5005576;28;20035;-70
2023/06/25 01:37:17;;;;;;;14.23;10.05;;;;;;;18.03;84.47;101830.97;4989754;28;20133;-69
2023/06/25 01:39:50;;;;;;;17.05;10.95;;;;;;;17.97;85.43;101837.91;4989498;28;20038;-70
2023/06/25 01:42:16;;;;;;;16.25;10.38;;;;;;;17.95;84.44;101820.66;5005526;28;20041;-69
2023/06/25 01:44:41;;;;;;;19.67;11.25;;;;;;;17.97;83.95;101820.50;5010457;28;20053;-69
2023/06/25 01:47:07;;;;;;;15.25;10.77;;;;;;;17.97;83.50;101817.75;5008042;28;20037;-69
2023/06/25 01:49:32;;;;;;;16.05;10.40;;;;;;;17.92;85.06;101818.16;4991322;28;20081;-69
2023/06/25 01:51:57;;;;;;;15.70;10.43;;;;;;;17.88;84.55;101811.16;4988620;28;20409;-69
2023/06/25 01:54:23;;;;;;;18.00;10.10;;;;;;;17.84;84.99;101807.81;5007887;28;20037;-69
2023/06/25 01:56:48;;;;;;;16.00;10.10;;;;;;;17.82;85.03;101814.47;5007041;28;20080;-70
2023/06/25 01:59:14;;;;;;;16.42;10.55;;;;;;;17.79;84.93;101809.22;4990701;28;20680;-70
2023/06/25 02:01:39;;;;;;;17.73;10.27;;;;;;;17.77;84.69;101806.63;5005158;28;20030;-69
2023/06/25 02:04:05;;;;;;;18.35;10.20;;;;;;;17.71;86.70;101803.47;5005640;28;20104;-70
2023/06/25 02:06:30;;;;;;;15.90;9.85;;;;;;;17.72;84.32;101791.47;5004524;28;20109;-70
2023/06/25 02:08:55;;;;;;;16.42;10.23;;;;;;;17.69;84.75;101792.63;5002857;28;20069;-69
2023/06/25 02:11:21;;;;;;;19.08;11.38;;;;;;;17.66;84.87;101786.50;5009214;28;20092;-69
2023/06/25 02:13:47;;;;;;;17.13;10.73;;;;;;;17.66;85.00;101790.13;4990098;28;20042;-69
2023/06/25 02:16:12;;;;;;;16.63;10.07;;;;;;;17.62;85.56;101785.88;5008960;28;20041;-69
2023/06/25 02:18:38;;;;;;;18.13;11.25;;;;;;;17.57;86.13;101783.53;5009788;28;20080;-69
2023/06/25 02:21:04;;;;;;;15.88;11.38;;;;;;;17.52;86.47;101782.19;4991944;28;20073;-69
2023/06/25 02:23:29;;;;;;;19.10;11.15;;;;;;;17.49;86.22;101772.34;5007060;28;20421;-70
2023/06/25 02:25:55;;;;;;;16.05;11.10;;;;;;;17.50;85.10;101773.22;5004337;28;20038;-70
2023/06/25 02:28:20;;;;;;;18.70;10.68;;;;;;;17.48;84.32;101770.56;5007676;28;20057;-69
2023/06/25 02:30:46;;;;;;;15.27;10.13;;;;;;;17.47;84.43;101765.22;5009528;28;20096;-69
2023/06/25 02:33:12;;;;;;;17.20;11.32;;;;;;;17.43;85.58;101766.47;5009165;28;20026;-70
2023/06/25 02:35:37;;;;;;;21.65;12.93;;;;;;;17.39;85.71;101767.75;4991460;28;20140;-70
2023/06/25 02:38:03;;;;;;;24.05;14.55;;;;;;;17.33;87.10;101763.66;5001438;28;20050;-71
2023/06/25 02:40:28;;;;;;;22.27;12.73;;;;;;;17.31;86.20;101763.81;4990599;28;20048;-69
2023/06/25 02:42:55;;;;;;;21.13;13.15;;;;;;;17.30;85.36;101761.19;5007859;28;20029;-71
2023/06/25 02:45:20;;;;;;;19.35;12.55;;;;;;;17.26;85.37;101755.09;5008016;28;20053;-69
2023/06/25 02:47:46;;;;;;;22.80;13.25;;;;;;;17.24;86.33;101754.31;5007796;28;20038;-70
2023/06/25 02:50:13;;;;;;;19.85;13.65;;;;;;;17.21;86.78;101753.75;5007433;28;20054;-69
2023/06/25 02:52:44;;;;;;;21.83;14.75;;;;;;;17.16;87.10;101755.97;5006724;28;20030;-72
2023/06/25 02:55:10;;;;;;;25.65;14.38;;;;;;;17.15;86.71;101762.50;5007261;28;20068;-69
2023/06/25 02:57:35;;;;;;;19.58;13.15;;;;;;;17.15;85.74;101757.00;5007108;28;20366;-69
2023/06/25 03:00:01;;;;;;;22.05;13.38;;;;;;;17.11;85.73;101750.88;4988828;28;20069;-70
2023/06/25 03:02:26;;;;;;;20.67;12.45;;;;;;;17.12;85.72;101752.66;5005948;28;20092;-70
2023/06/25 03:04:52;;;;;;;23.30;13.32;;;;;;;17.11;86.38;101752.75;5007884;28;20038;-71
2023/06/25 03:07:18;;;;;;;21.48;14.02;;;;;;;17.05;87.00;101752.28;5005537;28;20050;-69
2023/06/25 03:09:43;;;;;;;20.90;13.77;;;;;;;17.01;88.34;101756.28;4986778;28;20041;-71
2023/06/25 03:12:10;;;;;;;22.23;13.30;;;;;;;16.95;89.28;101753.19;4988479;28;20069;-69
2023/06/25 03:14:36;;;;;;;18.92;13.15;;;;;;;16.88;89.69;101755.63;5004775;28;20074;-70
2023/06/25 03:17:04;;;;;;;19.02;13.18;;;;;;;16.88;87.81;101749.22;5002501;28;20021;-70
2023/06/25 03:19:30;;;;;;;21.75;12.25;;;;;;;16.87;87.08;101742.84;5008578;28;20039;-70
2023/06/25 03:21:55;;;;;;;20.70;13.80;;;;;;;16.90;87.27;101753.59;4993963;28;20045;-70
2023/06/25 03:24:21;;;;;;;22.73;14.63;;;;;;;16.90;87.89;101744.47;5004157;28;20030;-69
2023/06/25 03:26:47;;;;;;;18.75;12.32;;;;;;;16.89;87.74;101754.59;4996127;28;20033;-69
2023/06/25 03:29:13;;;;;;;20.77;14.82;;;;;;;16.87;88.23;101745.59;5006679;28;20140;-70
2023/06/25 03:31:38;;;;;;;20.90;14.98;;;;;;;16.85;88.26;101750.38;5007547;28;20022;-69
2023/06/25 03:34:04;;;;;;;21.83;14.23;;;;;;;16.85;87.91;101744.00;4990701;28;20117;-69
2023/06/25 03:36:30;;;;;;;20.13;13.57;;;;;;;16.84;88.22;101743.13;5004752;28;20128;-69
2023/06/25 03:38:57;;;;;;;20.90;12.90;;;;;;;16.83;88.00;101735.88;5006851;28;20116;-69
2023/06/25 03:41:23;;;;;;;24.02;13.32;;;;;;;16.81;88.62;101741.50;5003069;28;20035;-70
2023/06/25 03:43:48;;;;;;;18.83;12.40;;;;;;;16.81;89.13;101740.63;4997395;28;20042;-69
2023/06/25 03:46:14;;;;;;;19.98;12.27;;;;;;;16.78;88.45;101744.50;5005999;28;20088;-70
2023/06/25 03:48:41;;;;;;;18.33;12.07;;;;;;;16.79;87.92;101742.66;4998520;28;20587;-70
2023/06/25 03:51:06;;;;;;;18.98;12.13;;;;;;;16.80;88.10;101733.41;4990175;28;20489;-70
2023/06/25 03:53:32;;;;;;;15.18;10.48;;;;;;;16.80;87.19;101734.25;5002319;28;20026;-69
2023/06/25 03:55:57;;;;;;;18.02;12.23;;;;;;;16.82;87.82;101731.38;4991985;28;20037;-69
2023/06/25 03:58:22;;;;;;;19.65;12.48;;;;;;;16.85;87.05;101730.25;5002174;28;20116;-69
2023/06/25 04:00:48;;;;;;;21.88;11.85;;;;;;;16.86;88.07;101732.00;5003502;28;20447;-69
2023/06/25 04:03:13;;;;;;;18.67;13.10;;;;;;;16.83;88.48;101735.88;4988872;28;20041;-71
2023/06/25 04:05:39;;;;;;;20.95;13.77;;;;;;;16.80;89.28;101731.50;5003548;28;20037;-70
2023/06/25 04:08:04;;;;;;;21.48;13.35;;;;;;;16.82;88.96;101728.63;5006220;28;20041;-69
2023/06/25 04:10:29;;;;;;;22.88;14.02;;;;;;;16.85;89.00;101733.88;5005195;28;20053;-69
2023/06/25 04:12:56;;;;;;;20.02;13.40;;;;;;;16.86;88.62;101732.00;5003222;28;20057;-69
2023/06/25 04:15:21;;;;;;;18.92;13.70;;;;;;;16.87;89.39;101740.09;5006469;28;20057;-70
2023/06/25 04:17:47;;;;;;;23.08;14.38;;;;;;;16.89;89.16;101737.25;5005144;28;20037;-70
2023/06/25 04:20:13;;;;;;;18.50;13.82;;;;;;;16.90;89.41;101736.22;5006601;28;20121;-70
2023/06/25 04:22:38;;;;;;;21.50;13.48;;;;;;;16.92;88.85;101736.97;5006545;28;20449;-69
2023/06/25 04:25:04;;;;;;;19.85;14.80;;;;;;;16.90;91.47;101745.34;4985879;28;20042;-69
2023/06/25 04:27:30;;;;;;;19.63;13.80;;;;;;;16.91;90.17;101738.84;5002415;28;20537;-69
2023/06/25 04:29:55;;;;;;;19.30;13.98;;;;;;;16.96;89.40;101739.31;5014190;28;20466;-69
2023/06/25 04:32:21;;;;;;;20.98;13.40;;;;;;;17.01;90.06;101726.03;5005025;28;20033;-69
2023/06/25 04:34:46;;;;;;;23.95;14.23;;;;;;;17.04;91.09;101722.19;5001848;28;20038;-70
2023/06/25 04:37:12;;;;;;;22.75;14.52;;;;;;;17.04;92.50;101730.44;4987548;28;20565;-69
2023/06/25 04:39:40;;;;;;;19.65;14.05;;;;;;;17.08;91.16;101731.91;4985731;28;20160;-69
2023/06/25 04:42:06;;;;;;;20.92;13.90;;;;;;;17.15;90.10;101732.25;5002502;28;20475;-69
2023/06/25 04:44:32;;;;;;;22.42;16.42;;;;;;;17.17;92.43;101725.63;5008116;28;20030;-69
2023/06/25 04:46:58;;;;;;;20.60;14.23;;;;;;;17.20;90.61;101736.34;5004786;28;20034;-69
2023/06/25 04:49:23;;;;;;;18.83;13.93;;;;;;;17.25;90.89;101735.94;4992698;28;20482;-70
2023/06/25 04:51:49;;;;;;;29.17;21.10;;;;;;;17.26;93.87;101726.72;5009335;28;20945;-69
2023/06/25 04:54:14;;;;;;;26.17;18.50;;;;;;;17.29;91.90;101740.19;5007244;28;20120;-70
2023/06/25 04:56:40;;;;;;;22.33;15.93;;;;;;;17.37;91.91;101734.88;4990195;28;20026;-70
2023/06/25 04:59:05;;;;;;;22.80;17.55;;;;;;;17.41;93.75;101730.00;5001158;28;20049;-70
2023/06/25 05:01:30;;;;;;;28.17;20.08;;;;;;;17.44;94.55;101726.97;5009744;28;20382;-69
2023/06/25 05:03:56;;;;;;;23.70;16.77;;;;;;;17.50;91.04;101723.69;5009940;28;20069;-70
2023/06/25 05:06:21;;;;;;;25.33;18.15;;;;;;;17.56;91.53;101732.25;5009273;28;20485;-69
2023/06/25 05:08:47;;;;;;;29.88;20.33;;;;;;;17.62;92.35;101727.22;5008580;28;20026;-71
2023/06/25 05:11:12;;;;;;;28.13;22.27;;;;;;;17.66;92.98;101739.72;5010226;28;20152;-70
2023/06/25 05:13:38;;;;;;;34.65;24.95;;;;;;;17.68;94.60;101724.81;5009719;28;20033;-70
2023/06/25 05:16:03;;;;;;;28.25;22.73;;;;;;;17.75;93.21;101725.16;5007308;28;20109;-70
2023/06/25 05:18:29;;;;;;;33.50;27.90;;;;;;;17.81;95.03;101721.88;5010354;28;20030;-71
2023/06/25 05:20:54;;;;;;;30.45;26.92;;;;;;;17.83;93.12;101729.00;5010168;28;20201;-70
2023/06/25 05:23:20;;;;;;;35.88;26.40;;;;;;;17.89;92.67;101726.69;5007728;28;20547;-70
2023/06/25 05:25:45;;;;;;;33.05;26.92;;;;;;;17.97;91.23;101727.75;5007251;28;20670;-70
2023/06/25 05:28:11;;;;;;;34.80;29.92;;;;;;;18.04;90.76;101728.06;5022865;28;20030;-70
2023/06/25 05:30:36;;;;;;;33.78;29.42;;;;;;;18.10;89.53;101719.28;5010021;28;20033;-70
2023/06/25 05:33:02;;;;;;;40.92;36.30;;;;;;;18.18;91.71;101722.19;5007780;28;20025;-71
2023/06/25 05:35:30;;;;;;;38.35;34.35;;;;;;;18.19;89.17;101725.84;5007792;28;20038;-70
2023/06/25 05:37:56;;;;;;;42.58;35.17;;;;;;;18.25;90.33;101730.78;5010213;28;20132;-71
2023/06/25 05:40:26;;;;;;;46.13;36.72;;;;;;;18.32;91.91;101727.31;4994443;28;20161;-70
2023/06/25 05:42:51;;;;;;;38.97;34.78;;;;;;;18.41;89.85;101724.72;4990039;28;20490;-70
2023/06/25 05:45:16;;;;;;;47.83;38.33;;;;;;;18.50;91.05;101730.25;4999855;28;20045;-70
2023/06/25 05:47:43;;;;;;;45.42;38.60;;;;;;;18.52;91.41;101725.50;5006343;28;20463;-69
2023/06/25 05:50:09;;;;;;;37.47;31.27;;;;;;;18.53;86.80;101712.59;5005447;28;20046;-70
2023/06/25 05:52:34;;;;;;;39.45;32.83;;;;;;;18.60;87.61;101708.22;4991153;28;20045;-69
2023/06/25 05:55:00;;;;;;;40.25;34.58;;;;;;;18.66;89.07;101715.09;5008687;28;20125;-70
2023/06/25 05:57:25;;;;;;;40.67;34.03;;;;;;;18.69;88.20;101707.41;4998568;28;20037;-70
2023/06/25 05:59:50;;;;;;;38.05;33.17;;;;;;;18.72;89.03;101709.03;5004196;28;20049;-70
2023/06/25 06:02:16;;;;;;;32.60;27.73;;;;;;;18.76;84.29;101708.59;5008872;28;20858;-68
2023/06/25 06:04:42;;;;;;;36.88;28.75;;;;;;;18.83;85.45;101703.38;5009821;28;20087;-69
2023/06/25 06:07:07;;;;;;;39.35;29.80;;;;;;;18.88;86.00;101702.94;5007377;28;20115;-69
2023/06/25 06:09:32;;;;;;;34.58;27.58;;;;;;;18.90;84.43;101707.31;5007881;28;20038;-70
2023/06/25 06:11:58;;;;;;;35.35;28.05;;;;;;;18.98;84.16;101699.19;5008938;28;20056;-71
2023/06/25 06:14:23;;;;;;;37.33;29.60;;;;;;;19.05;85.33;101711.38;5004661;28;20041;-70
2023/06/25 06:16:48;;;;;;;33.22;27.83;;;;;;;19.11;83.08;101713.53;5009436;28;20065;-70
2023/06/25 06:19:14;;;;;;;31.77;27.42;;;;;;;19.17;82.97;101712.09;5007845;28;20034;-71
2023/06/25 06:21:39;;;;;;;32.55;27.02;;;;;;;19.27;82.62;101717.63;5006663;28;20138;-69
2023/06/25 06:24:04;;;;;;;34.65;26.85;;;;;;;19.32;83.00;101716.16;5007523;28;20025;-69
2023/06/25 06:26:30;;;;;;;30.73;26.00;;;;;;;19.43;81.98;101719.75;5000110;28;20042;-70
2023/06/25 06:28:55;;;;;;;31.05;25.30;;;;;;;19.46;82.14;101716.72;4999691;28;20116;-69
2023/06/25 06:31:21;;;;;;;34.88;27.17;;;;;;;19.52;82.24;101711.47;4994851;28;20433;-70
2023/06/25 06:33:46;;;;;;;35.67;27.40;;;;;;;19.60;82.07;101710.75;5009162;28;20377;-69
2023/06/25 06:36:12;;;;;;;33.88;28.63;;;;;;;19.66;82.22;101715.69;5003888;28;20073;-69
2023/06/25 06:38:38;;;;;;;34.67;26.83;;;;;;;19.74;81.14;101704.78;4998725;28;20049;-69
2023/06/25 06:41:04;;;;;;;39.42;28.13;;;;;;;19.81;82.05;101708.66;4992065;28;20042;-70
2023/06/25 06:43:30;;;;;;;33.58;27.50;;;;;;;19.88;82.69;101704.28;5001959;28;20046;-70
2023/06/25 06:45:55;;;;;;;33.40;28.02;;;;;;;19.95;81.78;101706.44;4999482;28;20055;-69
2023/06/25 06:48:21;;;;;;;34.83;27.63;;;;;;;20.01;81.33;101700.31;4995567;28;20165;-69
2023/06/25 06:50:46;;;;;;;33.22;26.33;;;;;;;20.07;81.59;101699.72;5008803;28;20029;-69
2023/06/25 06:53:11;;;;;;;33.40;24.13;;;;;;;20.15;80.16;101702.59;5006982;28;20049;-69
2023/06/25 06:55:37;;;;;;;29.67;22.65;;;;;;;20.22;80.39;101703.69;5004091;28;20033;-69
2023/06/25 06:58:02;;;;;;;28.23;21.50;;;;;;;20.32;79.50;101698.13;5005707;28;20088;-70
2023/06/25 07:00:27;;;;;;;27.80;20.25;;;;;;;20.44;78.05;101701.56;5008762;28;20083;-69
2023/06/25 07:02:55;;;;;;;24.38;16.92;;;;;;;20.55;74.81;101699.47;5007241;28;20030;-69
2023/06/25 07:05:22;;;;;;;23.27;16.77;;;;;;;20.67;74.62;101694.59;5004259;28;20041;-70
2023/06/25 07:07:47;;;;;;;20.35;14.30;;;;;;;20.80;72.45;101694.22;5002365;28;20371;-69
2023/06/25 07:10:12;;;;;;;19.83;13.98;;;;;;;20.91;71.25;101704.19;4995170;28;20044;-69
2023/06/25 07:12:38;;;;;;;20.25;13.27;;;;;;;20.97;70.04;101695.22;5000624;28;20034;-69
2023/06/25 07:15:03;;;;;;;21.92;13.65;;;;;;;21.07;72.08;101693.25;4999776;28;20111;-69
2023/06/25 07:17:29;;;;;;;21.70;14.27;;;;;;;21.11;73.76;101692.78;5005862;28;20038;-70
2023/06/25 07:19:54;;;;;;;16.67;12.65;;;;;;;21.24;69.06;101700.69;5003131;28;20076;-69
2023/06/25 07:22:19;;;;;;;18.00;12.05;;;;;;;21.29;70.51;101701.06;5003432;28;20042;-70
2023/06/25 07:24:45;;;;;;;18.90;12.55;;;;;;;21.35;71.13;101696.81;5006115;28;20079;-69
2023/06/25 07:27:10;;;;;;;18.42;11.18;;;;;;;21.46;71.33;101706.78;5008767;28;20532;-70
2023/06/25 07:29:35;;;;;;;18.23;10.68;;;;;;;21.57;68.83;101698.19;5006792;28;20038;-69
2023/06/25 07:32:01;;;;;;;16.48;11.18;;;;;;;21.66;67.14;101694.44;5007368;28;20052;-69
2023/06/25 07:34:26;;;;;;;13.98;10.55;;;;;;;21.78;65.74;101687.63;5009134;28;20160;-70
2023/06/25 07:36:51;;;;;;;17.02;10.57;;;;;;;21.90;66.23;101690.97;5007154;28;20038;-70
2023/06/25 07:39:29;;;;;;;15.45;9.63;;;;;;;21.96;68.88;101689.44;5007918;28;20041;-69
2023/06/25 07:41:56;;;;;;;15.15;8.93;;;;;;;22.07;65.96;101680.84;5003485;28;20041;-69
2023/06/25 07:44:22;;;;;;;13.13;8.32;;;;;;;22.20;67.22;101689.59;5008007;28;20496;-69
2023/06/25 07:46:48;;;;;;;12.30;7.97;;;;;;;22.27;67.65;101682.34;5008382;28;20548;-69
2023/06/25 07:49:14;;;;;;;12.93;8.35;;;;;;;22.32;65.08;101684.63;5007604;28;20064;-70
2023/06/25 07:51:43;;;;;;;12.52;7.90;;;;;;;22.44;64.52;101680.50;5002936;28;20061;-69
2023/06/25 07:54:09;;;;;;;11.32;6.75;;;;;;;22.59;64.78;101675.16;4997215;28;20172;-68
2023/06/25 07:56:34;;;;;;;11.63;7.85;;;;;;;22.73;65.04;101670.88;5002879;28;20037;-69
2023/06/25 07:58:59;;;;;;;11.77;7.18;;;;;;;22.93;64.74;101677.84;4999453;28;20061;-71
2023/06/25 08:01:25;;;;;;;10.93;6.82;;;;;;;23.09;65.78;101668.69;5003728;28;20123;-69
2023/06/25 08:03:50;;;;;;;10.88;6.35;;;;;;;23.19;64.73;101676.84;5001781;28;20482;-69
2023/06/25 08:06:16;;;;;;;10.15;5.90;;;;;;;23.35;64.49;101676.81;5004889;28;20099;-69
2023/06/25 08:08:41;;;;;;;13.55;6.75;;;;;;;23.59;60.63;101673.16;4997124;28;20060;-70
2023/06/25 08:11:06;;;;;;;13.43;5.25;;;;;;;24.06;63.44;101670.47;5003220;28;20084;-70
2023/06/25 08:13:32;;;;;;;10.57;5.80;;;;;;;24.36;56.59;101667.91;5000093;28;20045;-70
2023/06/25 08:15:57;;;;;;;7.35;5.50;;;;;;;25.13;59.19;101671.63;4997983;28;20068;-69
2023/06/25 08:18:22;;;;;;;6.63;4.97;;;;;;;25.84;58.23;101672.19;5004219;28;20029;-69
2023/06/25 08:20:48;;;;;;;11.25;5.88;;;;;;;26.48;55.66;101660.41;5005769;28;20037;-69
2023/06/25 08:23:13;;;;;;;6.93;4.93;;;;;;;27.21;54.02;101662.09;4998827;28;20037;-71
2023/06/25 08:25:38;;;;;;;8.35;6.18;;;;;;;27.67;50.07;101661.63;5006386;28;20049;-69
2023/06/25 08:28:04;;;;;;;8.77;5.47;;;;;;;28.23;52.01;101653.16;4999945;28;20041;-70
2023/06/25 08:30:29;;;;;;;8.18;5.82;;;;;;;28.75;47.40;101663.94;5002621;28;20037;-68
2023/06/25 08:32:55;;;;;;;8.02;6.07;;;;;;;29.26;47.99;101652.19;5002359;28;20457;-70
2023/06/25 08:35:20;;;;;;;7.75;5.47;;;;;;;29.60;50.25;101659.56;5002352;28;20107;-69
2023/06/25 08:37:46;;;;;;;8.77;6.00;;;;;;;29.84;44.16;101650.44;5000592;28;20529;-69
2023/06/25 08:40:12;;;;;;;8.57;5.82;;;;;;;30.30;46.44;101648.63;5002242;28;20096;-70
2023/06/25 08:42:41;;;;;;;10.32;5.85;;;;;;;30.41;44.09;101657.22;5001292;28;20038;-70
2023/06/25 08:45:08;;;;;;;7.53;5.65;;;;;;;30.83;44.71;101649.25;4996177;28;20065;-70
2023/06/25 08:47:38;;;;;;;14.10;5.43;;;;;;;31.15;45.37;101641.66;5001696;28;20115;-69
2023/06/25 08:50:05;;;;;;;6.82;5.80;;;;;;;31.38;43.46;101649.50;5000382;28;20058;-70
2023/06/25 08:52:30;;;;;;;9.55;5.35;;;;;;;31.74;42.75;101653.50;5003681;28;20022;-70
2023/06/25 08:54:56;;;;;;;7.63;5.65;;;;;;;31.98;42.78;101637.66;5001276;28;20048;-69
2023/06/25 08:57:21;;;;;;;10.20;5.57;;;;;;;31.77;36.99;101640.91;5000546;28;20398;-69
2023/06/25 08:59:47;;;;;;;6.05;5.38;;;;;;;32.03;42.65;101636.97;4998373;28;20069;-69
2023/06/25 09:02:12;;;;;;;7.00;5.13;;;;;;;32.13;39.38;101638.16;4997324;28;20113;-70
2023/06/25 09:04:38;;;;;;;8.30;5.30;;;;;;;31.98;39.05;101635.72;5004244;28;20038;-69
2023/06/25 09:07:07;;;;;;;8.48;4.72;;;;;;;32.42;40.46;101638.47;5000495;28;20493;-70
2023/06/25 09:09:33;;;;;;;7.65;5.40;;;;;;;32.55;39.54;101629.84;4998862;28;20049;-70
2023/06/25 09:11:58;;;;;;;7.72;5.30;;;;;;;32.84;38.26;101642.22;4996259;28;20066;-69
2023/06/25 09:14:24;;;;;;;6.97;4.60;;;;;;;32.72;34.99;101638.47;5004668;28;20748;-69
2023/06/25 09:16:50;;;;;;;5.35;4.50;;;;;;;32.83;41.28;101637.69;4999577;28;20871;-70
2023/06/25 09:19:19;;;;;;;6.45;4.82;;;;;;;32.94;39.41;101636.88;4998264;28;20410;-68
2023/06/25 09:21:46;;;;;;;6.45;4.75;;;;;;;33.07;40.81;101633.00;4997513;28;20091;-69
2023/06/25 09:24:19;;;;;;;5.47;3.97;;;;;;;33.33;39.48;101623.22;5005314;28;20037;-69
2023/06/25 09:26:48;;;;;;;5.68;4.55;;;;;;;33.69;38.73;101636.28;4999280;28;20034;-69
2023/06/25 09:29:15;;;;;;;7.95;4.78;;;;;;;33.39;34.56;101622.25;4995240;28;20390;-71
2023/06/25 09:31:46;;;;;;;6.03;4.65;;;;;;;33.52;37.40;101626.81;5017984;28;20487;-69
2023/06/25 09:34:15;;;;;;;9.43;4.93;;;;;;;33.50;34.13;101623.41;4996770;28;20026;-69
2023/06/25 09:36:40;;;;;;;9.45;5.15;;;;;;;33.67;35.92;101627.22;5009303;28;20396;-70
2023/06/25 09:39:08;;;;;;;6.15;4.40;;;;;;;33.98;37.13;101625.97;5006139;28;20128;-69
2023/06/25 09:41:34;;;;;;;6.15;5.00;;;;;;;33.85;33.43;101629.00;4990463;28;20053;-68
2023/06/25 09:44:03;;;;;;;7.88;5.65;;;;;;;33.91;38.34;101618.72;4999974;28;20030;-69
2023/06/25 09:46:33;;;;;;;6.93;4.88;;;;;;;34.17;37.12;101614.50;5009539;28;20033;-68
2023/06/25 09:49:01;;;;;;;5.47;4.45;;;;;;;34.54;37.51;101614.16;4996242;28;20027;-69
2023/06/25 09:51:31;;;;;;;8.38;4.68;;;;;;;34.30;35.16;101613.38;4990587;28;20125;-70
2023/06/25 09:54:02;;;;;;;15.77;5.10;;;;;;;34.36;35.58;101616.03;4990897;28;20039;-69
2023/06/25 09:56:28;;;;;;;7.30;4.65;;;;;;;34.20;35.05;101608.34;5000168;28;20042;-68
2023/06/25 09:58:53;;;;;;;7.88;5.03;;;;;;;34.15;34.18;101617.59;5006260;28;20026;-68
2023/06/25 10:01:19;;;;;;;6.03;4.75;;;;;;;34.38;34.71;101610.16;4994166;28;20060;-68
2023/06/25 10:03:44;;;;;;;6.95;4.45;;;;;;;34.43;34.49;101613.06;4996256;28;20061;-71
2023/06/25 10:06:10;;;;;;;5.75;4.55;;;;;;;34.30;34.19;101605.75;5009098;28;20558;-68
2023/06/25 10:08:39;;;;;;;6.78;4.68;;;;;;;34.41;36.54;101604.84;5008984;28;20032;-68
2023/06/25 10:11:05;;;;;;;5.63;4.30;;;;;;;34.64;32.61;101603.91;5003490;28;20745;-69
2023/06/25 10:13:30;;;;;;;6.68;4.40;;;;;;;34.84;32.86;101600.63;4991150;28;20105;-68
2023/06/25 10:15:58;;;;;;;5.07;4.10;;;;;;;35.13;35.34;101597.78;5006591;28;20041;-70
2023/06/25 10:18:23;;;;;;;6.25;4.20;;;;;;;35.17;34.69;101594.16;5007663;28;20136;-68
2023/06/25 10:20:49;;;;;;;5.95;4.30;;;;;;;35.35;34.53;101595.88;5007530;28;20607;-68
2023/06/25 10:23:20;;;;;;;7.05;5.50;;;;;;;35.39;35.00;101588.56;5009210;28;20068;-68
2023/06/25 10:25:58;;;;;;;;;;;;;;;35.47;34.06;101602.31;5006023;28;20042;-68
2023/06/25 10:28:31;;;;;;;5.72;4.45;;;;;;;35.25;31.82;101588.09;5006785;28;20015;-68
2023/06/25 10:30:59;;;;;;;6.53;4.75;;;;;;;35.34;34.26;101585.66;5008456;28;20037;-69
2023/06/25 10:33:24;;;;;;;6.65;4.57;;;;;;;35.40;30.93;101584.66;5007317;28;20108;-68
2023/06/25 10:35:57;;;;;;;5.80;4.65;;;;;;;35.62;33.07;101581.88;5002466;28;20582;-67
2023/06/25 10:38:26;;;;;;;6.78;4.78;;;;;;;35.84;33.51;101579.09;5006384;28;20053;-68
2023/06/25 10:40:51;;;;;;;6.10;5.00;;;;;;;35.76;31.30;101577.53;5002016;28;20534;-68
2023/06/25 10:43:18;;;;;;;5.70;4.35;;;;;;;35.82;32.50;101578.50;4989786;28;20033;-68
2023/06/25 10:45:54;;;;;;;4.72;4.22;;;;;;;36.09;33.72;101581.41;4998390;28;20040;-71
2023/06/25 10:48:20;;;;;;;5.03;4.30;;;;;;;36.10;29.00;101574.66;4999857;28;20398;-69
2023/06/25 10:50:46;;;;;;;9.32;4.80;;;;;;;35.60;27.20;101569.13;4989272;28;20406;-69
2023/06/25 10:53:13;;;;;;;6.20;4.88;;;;;;;35.49;30.44;101574.63;5000429;28;20134;-68
2023/06/25 10:55:43;;;;;;;6.05;4.95;;;;;;;35.50;30.60;101565.00;5008370;28;20041;-68
2023/06/25 10:58:09;;;;;;;7.90;4.75;;;;;;;35.52;29.23;101559.09;5010521;28;20041;-69
2023/06/25 11:00:35;;;;;;;7.00;4.80;;;;;;;35.56;32.20;101562.25;5006499;28;20028;-69
2023/06/25 11:03:01;;;;;;;8.02;4.65;;;;;;;35.73;31.40;101563.94;5008463;28;20045;-68
2023/06/25 11:05:43;;;;;;;5.40;4.40;;;;;;;35.92;30.37;101558.81;5006743;28;20387;-68
2023/06/25 11:08:08;;;;;;;9.77;4.40;;;;;;;36.07;29.72;101563.00;5007364;28;20062;-70
2023/06/25 11:10:36;;;;;;;4.65;4.15;;;;;;;36.23;32.21;101554.41;5016346;28;20457;-69